Time;durP1;ratioP1;P1;durP2;ratioP2;P2;SDS_P1;SDS_P2;PMS_P1;PMS_P2;Temp;Humidity;BMP_temperature;BMP_pressure;BME280_temperature;BME280_humidity;BME280_pressure;Samples;Min_cycle;Max_cycle;Signal;HPM_P1;HPM_P2
2021/04/25 00:01:20;;;;;;;9.80;5.00;;;11.10;58.00;;;;;;5090912;28;20444;-69
2021/04/25 00:03:46;;;;;;;14.13;5.57;;;11.10;58.00;;;;;;5090404;28;20179;-70
2021/04/25 00:06:11;;;;;;;15.17;5.47;;;11.10;58.00;;;;;;5089443;28;20214;-68
2021/04/25 00:08:37;;;;;;;9.50;5.10;;;11.10;58.20;;;;;;5094484;28;20666;-70
2021/04/25 00:11:04;;;;;;;11.13;5.37;;;11.00;58.80;;;;;;5100406;28;20231;-70
2021/04/25 00:13:30;;;;;;;13.23;5.87;;;11.00;58.80;;;;;;5095181;28;20719;-68
2021/04/25 00:15:56;;;;;;;8.27;5.17;;;11.00;58.80;;;;;;5099528;28;20515;-69
2021/04/25 00:18:22;;;;;;;9.70;4.90;;;11.00;58.90;;;;;;5091399;28;20432;-69
2021/04/25 00:20:48;;;;;;;8.10;4.53;;;11.00;59.10;;;;;;5103933;28;20444;-68
2021/04/25 00:23:14;;;;;;;10.10;5.43;;;10.80;59.20;;;;;;5096549;28;20465;-68
2021/04/25 00:25:39;;;;;;;10.00;4.83;;;10.80;59.30;;;;;;5092391;28;20468;-68
2021/04/25 00:28:05;;;;;;;10.00;5.10;;;10.80;59.50;;;;;;5090566;28;20777;-68
2021/04/25 00:30:31;;;;;;;10.57;5.20;;;10.90;59.60;;;;;;5090554;28;20296;-69
2021/04/25 00:32:57;;;;;;;12.93;4.80;;;10.80;59.50;;;;;;5091178;28;20508;-70
2021/04/25 00:35:22;;;;;;;14.50;4.60;;;10.60;59.90;;;;;;5091222;28;20180;-70
2021/04/25 00:37:49;;;;;;;12.60;4.80;;;10.60;60.10;;;;;;5093401;28;20187;-69
2021/04/25 00:40:16;;;;;;;9.00;5.30;;;10.70;60.00;;;;;;5089055;28;20640;-71
2021/04/25 00:42:42;;;;;;;8.07;4.43;;;10.40;60.70;;;;;;5090634;28;20425;-71
2021/04/25 00:45:14;;;;;;;8.37;4.43;;;10.40;61.20;;;;;;5103893;28;20420;-72
2021/04/25 00:47:44;;;;;;;10.03;5.27;;;10.40;61.20;;;;;;5112598;28;20424;-70
2021/04/25 00:50:12;;;;;;;8.83;4.37;;;10.40;61.00;;;;;;5115492;28;20439;-70
2021/04/25 00:52:44;;;;;;;8.47;5.23;;;10.40;61.30;;;;;;5122943;28;20416;-70
2021/04/25 00:55:11;;;;;;;10.80;4.70;;;10.40;61.20;;;;;;5119294;28;20450;-71
2021/04/25 00:57:38;;;;;;;13.30;4.60;;;10.40;61.30;;;;;;5109517;28;20459;-69
2021/04/25 01:00:09;;;;;;;10.40;4.87;;;10.40;61.50;;;;;;5120998;28;20436;-71
2021/04/25 01:02:35;;;;;;;11.80;4.63;;;10.40;61.50;;;;;;5102802;28;20428;-71
2021/04/25 01:05:04;;;;;;;10.00;4.70;;;10.40;61.60;;;;;;5116239;28;20424;-69
2021/04/25 01:07:29;;;;;;;7.93;4.10;;;10.40;61.60;;;;;;5120902;28;20496;-69
2021/04/25 01:09:55;;;;;;;5.90;3.97;;;10.40;61.70;;;;;;5104116;28;20541;-69
2021/04/25 01:12:22;;;;;;;10.57;4.90;;;10.30;62.00;;;;;;5118674;28;20182;-70
2021/04/25 01:14:48;;;;;;;8.63;4.50;;;10.30;62.30;;;;;;5121563;28;20216;-71
2021/04/25 01:17:13;;;;;;;9.57;5.30;;;10.20;62.50;;;;;;5124169;28;20424;-70
2021/04/25 01:19:39;;;;;;;7.70;4.60;;;10.10;62.90;;;;;;5122029;28;20229;-69
2021/04/25 01:22:06;;;;;;;10.00;4.73;;;10.10;63.10;;;;;;5110911;28;20456;-70
2021/04/25 01:24:31;;;;;;;8.20;4.13;;;10.00;63.70;;;;;;5098237;28;20195;-69
2021/04/25 01:26:57;;;;;;;8.67;4.50;;;9.90;64.10;;;;;;5099313;28;20464;-72
2021/04/25 01:29:23;;;;;;;8.20;5.43;;;9.80;64.20;;;;;;5117252;28;20206;-70
2021/04/25 01:31:49;;;;;;;10.90;4.57;;;9.70;64.50;;;;;;5111358;28;20273;-69
2021/04/25 01:34:15;;;;;;;7.60;4.60;;;9.70;65.10;;;;;;5100380;28;20879;-68
2021/04/25 01:36:41;;;;;;;7.60;4.60;;;9.60;65.40;;;;;;5110649;28;20472;-69
2021/04/25 01:39:07;;;;;;;7.83;4.53;;;9.60;65.70;;;;;;5118236;28;20224;-69
2021/04/25 01:41:33;;;;;;;10.73;4.80;;;9.50;66.00;;;;;;5108832;28;20210;-69
2021/04/25 01:44:00;;;;;;;7.70;4.43;;;9.50;66.30;;;;;;5099287;28;20498;-68
2021/04/25 01:46:26;;;;;;;12.80;5.70;;;9.50;66.10;;;;;;5104908;28;20470;-71
2021/04/25 01:48:52;;;;;;;9.60;4.33;;;9.50;66.40;;;;;;5113019;28;20424;-70
2021/04/25 01:51:18;;;;;;;10.73;5.13;;;9.40;66.40;;;;;;5101561;28;20329;-69
2021/04/25 01:53:43;;;;;;;13.80;5.27;;;9.30;66.00;;;;;;5111527;28;20191;-71
2021/04/25 01:56:09;;;;;;;8.80;4.80;;;9.20;66.30;;;;;;5100730;28;20275;-70
2021/04/25 01:58:35;;;;;;;14.00;5.70;;;9.20;66.40;;;;;;5114070;28;20208;-70
2021/04/25 02:01:01;;;;;;;11.70;4.80;;;9.20;66.30;;;;;;5110866;28;20202;-69
2021/04/25 02:03:27;;;;;;;8.33;4.80;;;9.20;66.30;;;;;;5102914;28;20195;-69
2021/04/25 02:05:53;;;;;;;13.20;5.40;;;9.10;66.30;;;;;;5093414;28;20679;-68
2021/04/25 02:08:20;;;;;;;11.50;5.30;;;9.10;66.40;;;;;;5097680;28;20428;-69
2021/04/25 02:10:46;;;;;;;11.03;5.30;;;9.10;66.70;;;;;;5094504;28;20472;-70
2021/04/25 02:13:12;;;;;;;12.30;5.50;;;9.10;66.70;;;;;;5098210;28;20428;-69
2021/04/25 02:15:39;;;;;;;19.20;4.90;;;9.20;67.00;;;;;;5120499;28;20539;-70
2021/04/25 02:18:06;;;;;;;8.60;4.97;;;9.20;67.20;;;;;;5115616;28;20502;-69
2021/04/25 02:20:33;;;;;;;13.13;5.30;;;9.30;66.60;;;;;;5115028;28;20436;-70
2021/04/25 02:22:58;;;;;;;11.33;4.80;;;9.30;66.40;;;;;;5110480;28;20425;-69
2021/04/25 02:25:25;;;;;;;10.67;4.43;;;9.30;66.30;;;;;;5093657;28;20427;-71
2021/04/25 02:27:52;;;;;;;9.30;4.80;;;9.20;66.60;;;;;;5108727;28;20436;-69
2021/04/25 02:30:32;;;;;;;9.43;4.73;;;9.20;67.20;;;;;;5103637;28;20453;-69
2021/04/25 02:32:58;;;;;;;9.27;4.80;;;9.10;67.60;;;;;;5091704;28;20473;-70
2021/04/25 02:35:26;;;;;;;11.70;4.40;;;9.10;67.90;;;;;;5089791;28;20424;-69
2021/04/25 02:37:52;;;;;;;10.20;4.83;;;9.10;67.90;;;;;;5090434;28;20470;-69
2021/04/25 02:40:21;;;;;;;11.03;4.80;;;9.10;68.00;;;;;;5089863;28;20484;-69
2021/04/25 02:42:48;;;;;;;12.53;5.20;;;9.00;68.20;;;;;;5089997;28;20478;-70
2021/04/25 02:45:16;;;;;;;9.33;5.40;;;8.90;68.80;;;;;;5102814;28;20416;-71
2021/04/25 02:47:45;;;;;;;10.10;5.13;;;8.80;69.20;;;;;;5108758;28;20451;-69
2021/04/25 02:50:10;;;;;;;10.57;5.27;;;8.80;69.50;;;;;;5112398;28;20501;-70
2021/04/25 02:52:36;;;;;;;9.93;4.80;;;8.80;69.70;;;;;;5101819;28;20416;-70
2021/04/25 02:55:03;;;;;;;11.57;5.30;;;8.70;69.80;;;;;;5114354;28;20446;-70
2021/04/25 02:57:29;;;;;;;15.43;5.40;;;8.60;69.90;;;;;;5114198;28;20265;-69
2021/04/25 02:59:54;;;;;;;8.97;5.00;;;8.60;70.40;;;;;;5114903;28;20455;-68
2021/04/25 03:02:20;;;;;;;13.97;4.40;;;8.60;70.50;;;;;;5097086;28;20197;-69
2021/04/25 03:04:46;;;;;;;6.70;4.07;;;8.50;70.80;;;;;;5109827;28;20193;-66
2021/04/25 03:07:11;;;;;;;10.60;5.20;;;8.50;71.00;;;;;;5096840;28;20314;-69
2021/04/25 03:09:37;;;;;;;15.67;5.00;;;8.40;71.30;;;;;;5095882;28;20671;-69
2021/04/25 03:12:03;;;;;;;11.43;5.17;;;8.40;71.60;;;;;;5098131;28;20841;-69
2021/04/25 03:14:29;;;;;;;10.67;5.53;;;8.30;71.80;;;;;;5100625;28;20205;-71
2021/04/25 03:16:54;;;;;;;12.30;5.30;;;8.20;72.10;;;;;;5095966;28;20413;-69
2021/04/25 03:19:20;;;;;;;9.67;4.53;;;8.20;72.30;;;;;;5092389;28;20195;-67
2021/04/25 03:21:46;;;;;;;9.13;6.17;;;8.10;72.90;;;;;;5110805;28;20277;-69
2021/04/25 03:24:12;;;;;;;11.50;5.40;;;8.00;73.20;;;;;;5111586;28;20264;-71
2021/04/25 03:26:37;;;;;;;10.07;5.50;;;8.00;73.60;;;;;;5110110;28;20637;-70
2021/04/25 03:29:03;;;;;;;11.10;5.20;;;8.00;73.50;;;;;;5111781;28;20349;-69
2021/04/25 03:31:29;;;;;;;12.50;5.70;;;8.00;73.30;;;;;;5097207;28;20202;-72
2021/04/25 03:33:55;;;;;;;12.03;6.43;;;7.90;73.50;;;;;;5096252;28;20933;-67
2021/04/25 03:36:21;;;;;;;10.63;4.87;;;7.90;73.60;;;;;;5094531;28;21115;-69
2021/04/25 03:38:46;;;;;;;13.67;5.80;;;8.00;73.60;;;;;;5109255;28;20650;-69
2021/04/25 03:41:12;;;;;;;11.53;5.40;;;7.90;73.70;;;;;;5112500;28;20259;-69
2021/04/25 03:43:38;;;;;;;10.73;5.40;;;7.90;73.90;;;;;;5121697;28;20189;-70
2021/04/25 03:46:04;;;;;;;8.37;4.50;;;7.90;73.90;;;;;;5125606;28;20205;-70
2021/04/25 03:48:29;;;;;;;10.03;5.20;;;7.90;73.90;;;;;;5125639;28;20178;-70
2021/04/25 03:50:55;;;;;;;10.30;5.10;;;7.90;73.70;;;;;;5118964;28;20613;-69
2021/04/25 03:53:21;;;;;;;14.97;5.50;;;7.90;73.60;;;;;;5109776;28;20189;-68
2021/04/25 03:55:46;;;;;;;10.40;5.57;;;7.80;72.60;;;;;;5105186;28;20224;-69
2021/04/25 03:58:12;;;;;;;13.23;5.83;;;7.80;72.40;;;;;;5109470;28;20607;-70
2021/04/25 04:00:38;;;;;;;8.67;5.10;;;7.80;72.30;;;;;;5107190;28;20798;-71
2021/04/25 04:03:04;;;;;;;10.97;5.23;;;7.80;72.40;;;;;;5097257;28;20186;-69
2021/04/25 04:05:30;;;;;;;12.10;5.97;;;7.90;72.30;;;;;;5092982;28;20590;-70
2021/04/25 04:07:55;;;;;;;9.60;4.63;;;7.90;72.70;;;;;;5096822;28;20224;-71
2021/04/25 04:10:21;;;;;;;12.10;5.37;;;7.80;73.50;;;;;;5094705;28;20249;-71
2021/04/25 04:12:47;;;;;;;11.33;5.60;;;7.90;73.70;;;;;;5109596;28;20182;-70
2021/04/25 04:15:13;;;;;;;10.10;5.30;;;7.90;73.60;;;;;;5107113;28;20190;-68
2021/04/25 04:17:39;;;;;;;9.90;5.27;;;7.80;73.90;;;;;;5109887;28;20189;-70
2021/04/25 04:20:06;;;;;;;9.77;5.30;;;7.80;73.00;;;;;;5110402;28;20420;-68
2021/04/25 04:22:32;;;;;;;9.93;5.13;;;7.70;73.20;;;;;;5109339;28;20194;-71
2021/04/25 04:24:58;;;;;;;9.60;5.47;;;7.70;73.30;;;;;;5110398;28;20428;-69
2021/04/25 04:27:24;;;;;;;9.50;4.90;;;7.70;73.00;;;;;;5108754;28;20468;-68
2021/04/25 04:29:50;;;;;;;12.23;5.50;;;7.70;73.30;;;;;;5094462;28;20455;-69
2021/04/25 04:32:15;;;;;;;13.60;5.93;;;7.70;73.30;;;;;;5108751;28;20175;-70
2021/04/25 04:34:41;;;;;;;8.73;5.20;;;7.60;73.50;;;;;;5108472;28;20244;-68
2021/04/25 04:37:08;;;;;;;13.57;6.30;;;7.70;73.50;;;;;;5108984;28;20183;-68
2021/04/25 04:39:34;;;;;;;12.17;5.67;;;7.60;73.60;;;;;;5108724;28;20182;-69
2021/04/25 04:42:00;;;;;;;9.07;5.47;;;7.60;73.90;;;;;;5116429;28;20443;-70
2021/04/25 04:44:25;;;;;;;11.33;5.43;;;7.60;73.60;;;;;;5113063;28;20224;-69
2021/04/25 04:46:51;;;;;;;14.70;6.13;;;7.70;74.20;;;;;;5112433;28;20210;-70
2021/04/25 04:49:17;;;;;;;10.77;5.80;;;7.60;73.90;;;;;;5114475;28;20239;-70
2021/04/25 04:51:43;;;;;;;11.67;6.20;;;7.60;74.60;;;;;;5114677;28;20194;-70
2021/04/25 04:54:09;;;;;;;15.00;5.70;;;7.60;74.20;;;;;;5110828;28;20435;-69
2021/04/25 04:56:35;;;;;;;14.13;5.80;;;7.70;74.00;;;;;;5112357;27;20420;-71
2021/04/25 04:59:01;;;;;;;13.23;5.83;;;7.60;74.30;;;;;;5112265;28;20565;-69
2021/04/25 05:01:26;;;;;;;11.13;6.00;;;7.70;74.20;;;;;;5111890;28;20205;-69
2021/04/25 05:03:52;;;;;;;17.80;6.27;;;7.60;74.30;;;;;;5093150;28;20643;-71
2021/04/25 05:06:18;;;;;;;12.40;6.10;;;7.60;74.60;;;;;;5091935;28;20203;-68
2021/04/25 05:08:43;;;;;;;14.10;6.23;;;7.60;74.30;;;;;;5105283;28;20227;-69
2021/04/25 05:11:09;;;;;;;14.57;6.00;;;7.60;74.30;;;;;;5091501;28;20206;-68
2021/04/25 05:13:35;;;;;;;16.73;5.40;;;7.70;74.20;;;;;;5091449;28;20257;-69
2021/04/25 05:16:00;;;;;;;10.63;5.87;;;7.70;74.30;;;;;;5091911;28;20226;-70
2021/04/25 05:18:26;;;;;;;16.27;6.37;;;7.70;74.30;;;;;;5090264;28;20576;-71
2021/04/25 05:20:52;;;;;;;12.57;6.70;;;7.70;73.60;;;;;;5091242;28;20225;-71
2021/04/25 05:23:18;;;;;;;12.57;6.30;;;7.80;73.70;;;;;;5091303;28;20266;-71
2021/04/25 05:25:43;;;;;;;13.13;6.30;;;7.70;73.70;;;;;;5092420;28;20453;-70
2021/04/25 05:28:09;;;;;;;15.10;6.40;;;7.80;73.70;;;;;;5096178;28;20581;-68
2021/04/25 05:30:35;;;;;;;9.57;5.87;;;7.80;73.90;;;;;;5099969;28;20210;-70
2021/04/25 05:33:01;;;;;;;13.70;6.47;;;7.80;73.90;;;;;;5091339;28;20179;-69
2021/04/25 05:35:27;;;;;;;11.00;5.83;;;7.90;73.70;;;;;;5091125;28;20421;-71
2021/04/25 05:37:52;;;;;;;13.73;7.63;;;7.90;73.90;;;;;;5091354;28;20193;-68
2021/04/25 05:40:18;;;;;;;17.00;6.87;;;7.80;73.60;;;;;;5090339;28;20445;-68
2021/04/25 05:42:44;;;;;;;13.03;7.10;;;7.70;74.60;;;;;;5090838;28;20206;-68
2021/04/25 05:45:20;;;;;;;18.00;6.60;;;7.80;74.30;;;;;;5090701;28;20185;-67
2021/04/25 05:47:54;;;;;;;13.53;6.43;;;8.00;74.00;;;;;;5110038;28;20684;-69
2021/04/25 05:50:23;;;;;;;13.40;6.57;;;8.20;73.20;;;;;;5111015;28;20559;-70
2021/04/25 05:52:48;;;;;;;12.83;6.47;;;8.20;72.90;;;;;;5089342;28;20425;-69
2021/04/25 05:55:15;;;;;;;15.63;8.20;;;8.10;73.00;;;;;;5101224;28;20511;-68
2021/04/25 05:57:42;;;;;;;14.50;6.97;;;8.20;72.90;;;;;;5110981;28;20502;-69
2021/04/25 06:00:11;;;;;;;14.47;6.93;;;8.30;72.40;;;;;;5097994;28;20652;-70
2021/04/25 06:02:37;;;;;;;15.13;7.40;;;8.40;72.10;;;;;;5090764;28;20487;-69
2021/04/25 06:05:04;;;;;;;16.97;7.30;;;8.40;71.70;;;;;;5090400;28;20412;-68
2021/04/25 06:07:29;;;;;;;15.30;7.53;;;8.30;71.70;;;;;;5090688;28;20464;-70
2021/04/25 06:09:55;;;;;;;14.37;7.30;;;8.10;72.90;;;;;;5090078;28;20422;-69
2021/04/25 06:12:21;;;;;;;14.90;7.00;;;8.00;73.30;;;;;;5089739;28;20214;-69
2021/04/25 06:14:47;;;;;;;14.43;7.00;;;8.10;73.70;;;;;;5093207;28;20183;-69
2021/04/25 06:17:12;;;;;;;16.13;7.73;;;8.10;73.30;;;;;;5111278;28;20215;-69
2021/04/25 06:19:38;;;;;;;18.17;8.50;;;8.20;73.20;;;;;;5097711;28;20486;-70
2021/04/25 06:22:05;;;;;;;16.50;8.17;;;8.20;73.50;;;;;;5113463;28;20233;-72
2021/04/25 06:24:31;;;;;;;17.13;7.13;;;8.10;73.30;;;;;;5113311;28;20195;-68
2021/04/25 06:26:57;;;;;;;16.27;8.87;;;8.10;73.90;;;;;;5114169;28;20877;-70
2021/04/25 06:29:23;;;;;;;13.37;7.43;;;8.10;73.70;;;;;;5115619;28;20791;-71
2021/04/25 06:31:48;;;;;;;14.30;7.90;;;8.20;73.70;;;;;;5115556;28;20448;-69
2021/04/25 06:34:14;;;;;;;15.83;8.80;;;8.30;73.30;;;;;;5113873;28;20190;-71
2021/04/25 06:36:42;;;;;;;17.97;8.63;;;8.30;73.20;;;;;;5111395;28;20182;-68
2021/04/25 06:39:10;;;;;;;16.63;8.17;;;8.50;73.00;;;;;;5111487;28;20182;-68
2021/04/25 06:41:36;;;;;;;17.00;8.50;;;8.50;72.40;;;;;;5102976;28;20813;-68
2021/04/25 06:44:02;;;;;;;19.73;9.57;;;8.60;72.30;;;;;;5091021;28;20417;-70
2021/04/25 06:46:29;;;;;;;17.40;8.83;;;8.60;71.70;;;;;;5100806;28;20463;-71
2021/04/25 06:48:55;;;;;;;21.30;9.90;;;8.40;72.90;;;;;;5095916;28;20427;-68
2021/04/25 06:51:21;;;;;;;20.13;9.50;;;8.30;73.50;;;;;;5099458;28;20523;-71
2021/04/25 06:53:47;;;;;;;14.20;8.07;;;8.30;73.60;;;;;;5108464;28;20187;-70
2021/04/25 06:56:12;;;;;;;17.70;8.63;;;8.50;73.60;;;;;;5103254;28;20487;-67
2021/04/25 06:58:38;;;;;;;25.67;8.57;;;8.70;73.00;;;;;;5093221;28;20191;-68
2021/04/25 07:01:04;;;;;;;17.53;9.60;;;8.70;71.80;;;;;;5096285;28;20230;-69
2021/04/25 07:03:30;;;;;;;23.57;11.20;;;8.70;72.10;;;;;;5101243;28;20303;-71
2021/04/25 07:05:56;;;;;;;17.83;9.43;;;8.80;72.40;;;;;;5108889;28;20503;-68
2021/04/25 07:08:24;;;;;;;16.93;8.87;;;8.80;72.00;;;;;;5095111;28;20222;-70
2021/04/25 07:10:53;;;;;;;18.70;10.60;;;8.70;72.40;;;;;;5102015;28;20443;-70
2021/04/25 07:13:21;;;;;;;27.10;11.37;;;8.90;71.80;;;;;;5108876;28;20984;-67
2021/04/25 07:15:46;;;;;;;22.13;11.10;;;8.90;72.00;;;;;;5090285;28;20421;-69
2021/04/25 07:18:12;;;;;;;22.07;10.00;;;8.80;72.00;;;;;;5088198;28;20429;-69
2021/04/25 07:20:39;;;;;;;20.67;10.90;;;9.00;72.00;;;;;;5094054;28;20299;-69
2021/04/25 07:23:05;;;;;;;22.60;10.90;;;9.10;71.30;;;;;;5089164;28;20183;-68
2021/04/25 07:25:31;;;;;;;22.80;11.47;;;9.20;71.00;;;;;;5094480;28;20424;-68
2021/04/25 07:27:57;;;;;;;22.13;12.23;;;9.30;70.20;;;;;;5103744;28;20277;-69
2021/04/25 07:30:23;;;;;;;22.03;11.70;;;9.50;69.70;;;;;;5089125;28;20952;-69
2021/04/25 07:32:49;;;;;;;29.23;13.00;;;9.60;68.80;;;;;;5089796;28;20763;-70
2021/04/25 07:35:16;;;;;;;24.97;12.10;;;9.70;68.50;;;;;;5089653;28;20970;-72
2021/04/25 07:37:43;;;;;;;22.83;11.87;;;9.80;68.30;;;;;;5090428;28;21291;-71
2021/04/25 07:40:10;;;;;;;27.10;12.40;;;9.90;67.60;;;;;;5089290;28;20463;-71
2021/04/25 07:42:38;;;;;;;23.57;11.47;;;9.80;68.20;;;;;;5095155;28;20446;-70
2021/04/25 07:45:05;;;;;;;24.90;12.63;;;9.90;68.00;;;;;;5096973;28;20427;-69
2021/04/25 07:47:31;;;;;;;23.60;12.27;;;9.90;68.00;;;;;;5104118;28;20517;-71
2021/04/25 07:49:57;;;;;;;23.50;12.90;;;10.00;67.50;;;;;;5090354;28;20409;-70
2021/04/25 07:52:23;;;;;;;24.37;12.53;;;10.00;66.60;;;;;;5089838;28;20179;-69
2021/04/25 07:54:48;;;;;;;21.70;12.93;;;10.10;66.70;;;;;;5097640;28;20236;-68
2021/04/25 07:57:14;;;;;;;27.97;13.90;;;10.10;66.40;;;;;;5097561;28;20266;-69
2021/04/25 07:59:40;;;;;;;25.87;12.50;;;10.10;66.40;;;;;;5101478;28;20183;-70
2021/04/25 08:02:05;;;;;;;19.60;11.87;;;10.10;66.10;;;;;;5092580;28;20206;-70
2021/04/25 08:04:31;;;;;;;26.33;15.10;;;10.20;65.80;;;;;;5089090;28;20202;-70
2021/04/25 08:06:57;;;;;;;22.47;14.00;;;10.30;65.60;;;;;;5089392;28;20195;-69
2021/04/25 08:09:23;;;;;;;27.10;14.20;;;10.30;65.10;;;;;;5087768;28;20500;-70
2021/04/25 08:11:48;;;;;;;25.80;14.07;;;10.40;64.80;;;;;;5090899;28;20206;-70
2021/04/25 08:14:14;;;;;;;23.03;12.30;;;10.30;64.80;;;;;;5097668;28;20186;-69
2021/04/25 08:16:40;;;;;;;27.50;14.40;;;10.00;66.70;;;;;;5094074;28;20187;-70
2021/04/25 08:19:06;;;;;;;26.70;12.77;;;10.00;66.40;;;;;;5101328;28;20464;-69
2021/04/25 08:21:33;;;;;;;26.67;13.43;;;10.20;66.10;;;;;;5103725;28;20206;-69
2021/04/25 08:23:59;;;;;;;28.13;12.80;;;10.20;65.60;;;;;;5104338;28;20194;-70
2021/04/25 08:26:25;;;;;;;27.90;13.20;;;10.00;66.60;;;;;;5112704;28;20472;-68
2021/04/25 08:28:50;;;;;;;26.00;13.60;;;10.30;66.00;;;;;;5101248;28;20508;-70
2021/04/25 08:31:16;;;;;;;28.30;14.43;;;10.50;65.40;;;;;;5106647;28;20571;-70
2021/04/25 08:33:42;;;;;;;24.87;13.30;;;10.50;64.70;;;;;;5113880;28;20223;-69
2021/04/25 08:36:08;;;;;;;23.47;12.73;;;10.30;65.80;;;;;;5114175;28;21208;-68
2021/04/25 08:38:34;;;;;;;20.83;12.83;;;10.50;65.60;;;;;;5111835;28;20932;-68
2021/04/25 08:41:03;;;;;;;28.80;14.27;;;10.70;64.80;;;;;;5108385;28;20248;-71
2021/04/25 08:43:29;;;;;;;31.83;14.50;;;10.60;63.90;;;;;;5092956;28;20799;-70
2021/04/25 08:45:57;;;;;;;25.17;13.87;;;10.50;65.30;;;;;;5098121;28;20456;-67
2021/04/25 08:48:25;;;;;;;25.17;13.70;;;10.60;64.10;;;;;;5112263;28;20456;-71
2021/04/25 08:50:51;;;;;;;21.97;13.17;;;10.80;64.20;;;;;;5107190;28;20432;-70
2021/04/25 08:53:20;;;;;;;26.30;14.23;;;11.00;63.80;;;;;;5092096;28;20421;-71
2021/04/25 08:55:46;;;;;;;25.60;14.00;;;11.10;63.20;;;;;;5100109;28;20784;-70
2021/04/25 08:58:13;;;;;;;28.53;14.50;;;11.10;61.90;;;;;;5093302;28;20428;-69
2021/04/25 09:00:39;;;;;;;25.93;12.97;;;11.20;61.50;;;;;;5092165;28;20510;-68
2021/04/25 09:03:05;;;;;;;23.97;13.13;;;11.10;62.00;;;;;;5103132;28;20436;-70
2021/04/25 09:05:31;;;;;;;28.90;14.20;;;11.40;61.50;;;;;;5094725;28;20422;-70
2021/04/25 09:07:57;;;;;;;26.43;13.43;;;11.50;61.20;;;;;;5093682;28;20195;-70
2021/04/25 09:10:41;;;;;;;26.00;12.93;;;11.40;61.20;;;;;;5103607;28;20305;-69
2021/04/25 09:13:17;;;;;;;28.80;14.17;;;11.30;60.70;;;;;;5096852;28;21268;-70
2021/04/25 09:15:44;;;;;;;27.17;13.73;;;11.40;60.70;;;;;;5109127;28;20421;-70
2021/04/25 09:18:10;;;;;;;28.73;12.90;;;11.50;59.50;;;;;;5106744;28;20520;-69
2021/04/25 09:20:38;;;;;;;20.17;11.30;;;11.50;58.70;;;;;;5091386;28;20547;-70
2021/04/25 09:23:06;;;;;;;23.13;12.40;;;11.40;59.20;;;;;;5091868;28;20459;-67
2021/04/25 09:25:32;;;;;;;23.87;10.43;;;11.70;59.20;;;;;;5091841;28;20432;-68
2021/04/25 09:28:28;;;;;;;19.37;9.30;;;11.90;57.80;;;;;;5096356;28;20432;-67
2021/04/25 09:31:17;;;;;;;17.70;10.03;;;12.10;55.60;;;;;;5046421;28;20465;-65
2021/04/25 09:33:58;;;;;;;33.40;11.03;;;12.10;55.00;;;;;;5049947;28;20459;-66
2021/04/25 09:36:28;;;;;;;20.87;10.97;;;12.10;55.70;;;;;;5049541;28;20487;-64
2021/04/25 09:39:07;;;;;;;21.07;10.50;;;12.10;56.60;;;;;;5050874;28;20430;-66
2021/04/25 09:41:34;;;;;;;19.33;11.50;;;12.10;56.90;;;;;;5036882;28;20454;-68
2021/04/25 09:44:01;;;;;;;23.77;10.40;;;12.20;57.30;;;;;;5049424;28;20966;-69
2021/04/25 09:46:53;;;;;;;17.60;11.00;;;12.30;57.00;;;;;;5049080;28;20474;-67
2021/04/25 09:49:48;;;;;;;18.10;9.87;;;12.20;55.60;;;;;;5048792;28;20486;-69
2021/04/25 09:52:31;;;;;;;18.97;11.63;;;12.30;55.40;;;;;;5047599;28;20453;-68
2021/04/25 09:55:27;;;;;;;18.63;10.07;;;12.30;54.90;;;;;;5033967;28;20458;-65
2021/04/25 09:57:56;;;;;;;21.40;10.50;;;12.40;55.20;;;;;;5039012;28;20464;-65
2021/04/25 10:00:36;;;;;;;28.00;9.30;;;12.40;55.40;;;;;;5045740;28;21009;-68
2021/04/25 10:03:09;;;;;;;13.20;8.30;;;12.20;52.80;;;;;;5039238;28;20430;-68
2021/04/25 10:05:35;;;;;;;14.37;7.73;;;12.10;53.00;;;;;;5049007;28;20809;-68
2021/04/25 10:08:01;;;;;;;13.83;7.87;;;12.30;51.60;;;;;;5094895;28;20420;-66
2021/04/25 10:10:27;;;;;;;11.37;6.90;;;12.50;51.60;;;;;;5110522;28;20437;-66
2021/04/25 10:12:55;;;;;;;20.10;10.07;;;12.50;51.80;;;;;;5112014;28;20761;-69
2021/04/25 10:15:21;;;;;;;22.13;10.03;;;12.80;51.20;;;;;;5105378;28;21074;-65
2021/04/25 10:17:54;;;;;;;20.23;11.13;;;12.50;52.80;;;;;;5105038;28;20915;-67
2021/04/25 10:20:22;;;;;;;17.80;9.97;;;12.70;53.30;;;;;;5098597;28;20471;-69
2021/04/25 10:22:50;;;;;;;18.93;10.47;;;12.80;53.70;;;;;;5112156;28;20439;-67
2021/04/25 10:25:18;;;;;;;20.73;10.63;;;13.00;53.60;;;;;;5105205;28;20443;-67
2021/04/25 10:28:09;;;;;;;20.20;10.23;;;13.30;52.40;;;;;;5091802;28;20496;-68
2021/04/25 10:30:39;;;;;;;22.37;11.20;;;13.20;51.00;;;;;;5101858;28;20466;-66
2021/04/25 10:33:05;;;;;;;18.53;9.57;;;13.20;50.50;;;;;;5093486;28;20421;-67
2021/04/25 10:35:35;;;;;;;17.67;9.87;;;13.40;50.90;;;;;;5090644;28;20417;-66
2021/04/25 10:38:05;;;;;;;14.63;8.90;;;13.70;49.70;;;;;;5090386;28;21039;-68
2021/04/25 10:40:47;;;;;;;18.43;8.87;;;14.10;49.30;;;;;;5100796;28;20523;-68
2021/04/25 10:43:14;;;;;;;18.03;9.87;;;14.40;48.90;;;;;;5109570;28;20603;-67
2021/04/25 10:46:00;;;;;;;21.40;10.23;;;14.40;47.10;;;;;;5110230;28;20510;-67
2021/04/25 10:48:34;;;;;;;16.53;8.53;;;14.00;48.70;;;;;;5106154;28;20418;-73
2021/04/25 10:51:14;;;;;;;17.93;8.73;;;14.00;49.00;;;;;;5094690;28;20437;-71
2021/04/25 10:53:43;;;;;;;11.33;7.83;;;14.70;46.50;;;;;;5089347;28;20887;-70
2021/04/25 10:56:15;;;;;;;13.40;7.20;;;14.90;43.90;;;;;;5089234;28;20460;-70
2021/04/25 10:58:42;;;;;;;15.53;7.50;;;15.00;42.20;;;;;;5086998;28;20625;-72
2021/04/25 11:01:09;;;;;;;11.67;7.27;;;15.20;41.60;;;;;;5095031;28;20812;-71
2021/04/25 11:03:36;;;;;;;13.60;7.43;;;15.30;42.40;;;;;;5109132;28;20422;-71
2021/04/25 11:06:02;;;;;;;11.93;7.70;;;14.90;43.10;;;;;;5108994;28;20458;-78
2021/04/25 11:08:31;;;;;;;11.63;7.37;;;14.60;44.50;;;;;;5110038;28;20426;-70
2021/04/25 11:11:01;;;;;;;18.70;8.60;;;15.00;45.00;;;;;;5089507;28;20451;-69
2021/04/25 11:16:06;;;;;;;16.40;7.90;;;15.40;43.80;;;;;;5089545;28;20411;-69
2021/04/25 11:19:04;;;;;;;16.03;8.03;;;15.60;43.50;;;;;;5088958;28;20421;-72
2021/04/25 11:21:34;;;;;;;14.30;7.40;;;15.80;42.80;;;;;;5089399;28;20491;-71
2021/04/25 11:24:05;;;;;;;15.43;7.07;;;15.80;43.50;;;;;;5087681;28;20425;-71
2021/04/25 11:26:34;;;;;;;12.80;8.27;;;16.10;42.20;;;;;;5102670;28;21011;-70
2021/04/25 11:29:11;;;;;;;15.37;7.40;;;15.60;42.70;;;;;;5089057;28;20445;-71
2021/04/25 11:31:43;;;;;;;12.80;6.90;;;15.60;42.60;;;;;;5089576;28;20440;-71
2021/04/25 11:34:31;;;;;;;12.17;7.43;;;15.90;40.40;;;;;;5089299;28;20415;-69
2021/04/25 11:37:07;;;;;;;13.30;7.53;;;15.50;42.70;;;;;;5102130;28;20415;-70
2021/04/25 11:39:53;;;;;;;11.80;6.80;;;14.70;43.80;;;;;;5102278;28;20868;-70
2021/04/25 11:42:25;;;;;;;12.03;7.00;;;15.20;42.80;;;;;;5096515;28;20479;-70
2021/04/25 11:44:51;;;;;;;10.97;6.27;;;15.90;41.50;;;;;;5109831;28;20454;-70
2021/04/25 11:47:19;;;;;;;12.30;6.77;;;16.30;39.50;;;;;;5109276;28;20549;-70
2021/04/25 11:49:51;;;;;;;8.83;6.13;;;15.40;38.40;;;;;;5109099;28;20447;-71
2021/04/25 11:52:22;;;;;;;15.30;6.50;;;15.10;39.20;;;;;;5108602;28;20415;-70
2021/04/25 11:54:57;;;;;;;9.90;5.00;;;15.20;38.80;;;;;;5096678;28;20455;-71
2021/04/25 11:57:24;;;;;;;12.93;5.53;;;15.30;39.10;;;;;;5109195;28;20443;-69
2021/04/25 12:00:03;;;;;;;8.90;5.20;;;15.80;36.80;;;;;;5097351;28;20424;-70
2021/04/25 12:02:30;;;;;;;12.00;6.83;;;15.90;36.20;;;;;;5092343;28;20458;-71
2021/04/25 12:04:57;;;;;;;11.00;6.00;;;15.60;37.20;;;;;;5089916;28;20417;-69
2021/04/25 12:07:46;;;;;;;11.67;6.03;;;15.40;38.40;;;;;;5093340;28;20479;-69
2021/04/25 12:10:16;;;;;;;12.47;5.83;;;15.40;38.60;;;;;;5096950;28;20437;-71
2021/04/25 12:12:57;;;;;;;9.47;6.00;;;15.90;37.40;;;;;;5110592;28;21156;-71
2021/04/25 12:15:24;;;;;;;8.23;5.00;;;16.00;37.10;;;;;;5095324;28;20429;-71
2021/04/25 12:17:55;;;;;;;9.00;5.60;;;16.30;36.40;;;;;;5109906;28;20432;-70
2021/04/25 12:20:21;;;;;;;9.63;5.30;;;16.40;35.90;;;;;;5109542;28;20447;-71
2021/04/25 12:22:47;;;;;;;9.17;5.00;;;16.10;37.00;;;;;;5109219;28;20492;-69
2021/04/25 12:25:14;;;;;;;10.47;5.23;;;15.90;36.80;;;;;;5109334;28;20427;-69
2021/04/25 12:27:57;;;;;;;12.50;5.67;;;16.40;36.00;;;;;;5109360;28;21126;-69
2021/04/25 12:30:26;;;;;;;9.70;4.97;;;16.30;35.10;;;;;;5095822;28;20444;-70
2021/04/25 12:33:07;;;;;;;9.00;4.83;;;16.30;35.10;;;;;;5108798;28;20420;-70
2021/04/25 12:35:39;;;;;;;5.27;4.20;;;16.20;34.70;;;;;;5109431;28;21033;-71
2021/04/25 12:38:23;;;;;;;7.50;4.63;;;16.70;32.90;;;;;;5109371;28;20412;-70
2021/04/25 12:40:58;;;;;;;9.57;4.70;;;16.60;33.10;;;;;;5108959;28;20494;-69
2021/04/25 12:43:26;;;;;;;8.93;4.97;;;16.80;32.10;;;;;;5109187;28;20412;-71
2021/04/25 12:45:53;;;;;;;7.90;4.20;;;16.60;32.80;;;;;;5109938;28;20412;-71
2021/04/25 12:48:38;;;;;;;7.87;4.97;;;16.70;31.90;;;;;;5109667;28;20420;-71